createdAt,value
2019-02-09T00:00:02.416Z,-1.4
2019-02-09T00:15:02.862Z,-1.1
2019-02-09T00:30:03.289Z,-1.2
2019-02-09T00:45:02.669Z,-1.5
2019-02-09T01:00:02.953Z,-1.7
2019-02-09T01:15:03.322Z,-1.6
2019-02-09T01:30:03.041Z,-1.4
2019-02-09T01:45:03.328Z,-1.6
2019-02-09T02:00:10.296Z,-1.9
2019-02-09T02:15:03.323Z,-1.6
2019-02-09T02:30:02.666Z,-2.1
2019-02-09T02:45:03.219Z,-1.9
2019-02-09T03:00:02.513Z,-2.1
2019-02-09T03:15:02.898Z,-2.2
2019-02-09T03:30:03.292Z,-2.3
2019-02-09T03:45:02.575Z,-2.8
2019-02-09T04:00:02.849Z,-2.4
2019-02-09T04:15:03.314Z,-2.9
2019-02-09T04:30:02.541Z,-2.6
2019-02-09T04:45:02.985Z,-2.6
2019-02-09T05:00:02.503Z,-2.8
2019-02-09T05:15:03.056Z,-2.5
2019-02-09T05:30:03.456Z,-2.5
2019-02-09T05:45:02.742Z,-2.4
2019-02-09T06:00:03.060Z,-2.1
2019-02-09T06:15:03.382Z,-1.9
2019-02-09T06:30:02.931Z,-1.7
2019-02-09T06:45:03.325Z,-1.8
2019-02-09T07:00:02.670Z,-1.7
2019-02-09T07:15:03.262Z,-1.6
2019-02-09T07:30:02.415Z,-1.2
2019-02-09T07:45:02.724Z,-1.1
2019-02-09T08:00:03.277Z,-0.7
2019-02-09T08:15:02.884Z,-0.5
2019-02-09T08:30:02.495Z,-0.1
2019-02-09T08:45:02.744Z,0.1
2019-02-09T09:00:02.977Z,0.4
2019-02-09T09:15:03.200Z,1
2019-02-09T09:30:02.574Z,1.4
2019-02-09T09:45:02.570Z,2.1
2019-02-09T10:00:02.763Z,2.6
2019-02-09T10:15:03.114Z,4.8
2019-02-09T10:30:02.647Z,5.6
2019-02-09T10:45:02.896Z,5.3
2019-02-09T11:00:03.139Z,5.5
2019-02-09T11:15:02.655Z,6.2
2019-02-09T11:30:03.295Z,6.4
2019-02-09T11:45:02.714Z,6.6
2019-02-09T12:00:03.128Z,6.8
2019-02-09T12:15:08.806Z,7.1
2019-02-09T12:30:03.376Z,6.4
2019-02-09T12:45:02.652Z,6.9
2019-02-09T13:00:03.218Z,6.8
2019-02-09T13:15:02.754Z,7.8
2019-02-09T13:30:03.055Z,8.3
2019-02-09T13:45:03.385Z,7.8
2019-02-09T14:00:02.742Z,7.3
2019-02-09T14:15:03.070Z,7.6
2019-02-09T14:30:03.339Z,7
2019-02-09T14:45:02.860Z,6.6
2019-02-09T15:00:03.311Z,6
2019-02-09T15:15:02.669Z,5.7
2019-02-09T15:30:03.007Z,5.4
2019-02-09T15:45:03.250Z,5.4
2019-02-09T16:00:02.500Z,4.9
2019-02-09T16:15:02.814Z,4.9
2019-02-09T16:30:03.311Z,5.3
2019-02-09T16:45:02.528Z,4.8
2019-02-09T17:00:03.629Z,4.4
2019-02-09T17:15:03.060Z,4.1
2019-02-09T17:30:02.654Z,3.7
2019-02-09T17:45:02.933Z,3.2
2019-02-09T18:00:03.259Z,2.8
2019-02-09T18:15:02.540Z,2.4
2019-02-09T18:30:02.998Z,2.2
2019-02-09T18:45:03.328Z,2.1
2019-02-09T19:00:02.537Z,2.1
2019-02-09T19:15:03.002Z,1.7
2019-02-09T19:30:03.296Z,1.4
2019-02-09T19:45:02.631Z,1.3
2019-02-09T20:00:02.854Z,1.2
2019-02-09T20:15:03.225Z,1.1
2019-02-09T20:30:02.537Z,0.8
2019-02-09T20:45:02.854Z,0.8
2019-02-09T21:00:03.221Z,0.7
2019-02-09T21:15:02.672Z,0.6
2019-02-09T21:30:02.959Z,0.4
2019-02-09T21:45:03.300Z,0.4
2019-02-09T22:00:02.582Z,0.4
2019-02-09T22:15:03.104Z,0.2
2019-02-09T22:30:02.541Z,0.1
2019-02-09T22:45:02.818Z,0.3
2019-02-09T23:00:03.156Z,0
2019-02-09T23:15:02.818Z,0.1
2019-02-09T23:30:03.226Z,0.1
2019-02-09T23:45:02.495Z,-0.1
